• Join FlightAware (Why Join?)
  • Login
  • US Flag 
09:56AM EST


 

Airport Tracker/Info


-or-


 

Live Flight TrackerFlight Track Log ✈ N845AE ✈ 08-May-2013 ✈ KCID - KDFW

Flight Track Log - Related Links

Times and Time Zones

All times are in EDT time to prevent confusion due to time zone crossing. See the N845AE flight status page for this flight to view local times or setup timezone preferences in your user account.

Time Position Orientation Groundspeed Altitude Reporting Facility
EDT Latitude Longitude Course Direction KTS MPH feet Rate Location/Type
11:33AM 41.8272 -91.6494 197° South 219 252 4,000  Level Chicago Center
11:34AM 41.7483 -91.6850 199° South 240 276 6,800 2,460 Climbing Chicago Center
11:35AM 41.4948 -91.8516 193° South  Level FlightAware Approximate
11:35AM 41.6789 -91.7114 196° South 260 299 9,100  Level Chicago Center
11:36AM 41.3956 -91.8813 193° South  Level FlightAware Approximate
11:36AM 41.6044 -91.7414 197° South 279 321 10,500  Level Chicago Center
11:37AM 41.2972 -91.9148 197° South  Level FlightAware Approximate
11:37AM 41.5186 -91.7753 196° South 319 367 11,600  Level Chicago Center
11:38AM 41.1967 -91.9561 197° South  Level FlightAware Approximate
11:38AM 41.4269 -91.8122 197° South 343 395 13,000  Level Chicago Center
11:39AM 41.0961 -91.9973 197° South  Level FlightAware Approximate
11:39AM 41.3167 -91.8561 197° South 347 399 15,000  Level Chicago Center
11:40AM 41.2344 -91.8883 196° South 348 400 16,600 1,740 Climbing Chicago Center
11:42AM 41.1247 -91.9325 197° South 346 398 18,700 1,860 Climbing Chicago Center
11:43AM 41.0358 -91.9678 197° South 339 390 20,500 1,620 Climbing Chicago Center
11:44AM 40.9444 -92.0039 197° South 342 394 22,100 1,500 Climbing Chicago Center
11:45AM 40.8508 -92.0397 196° South 350 403 23,600 1,560 Climbing Chicago Center
11:46AM 40.7586 -92.0758 197° South 348 400 25,400 1,740 Climbing Chicago Center
11:47AM 40.6686 -92.1103 196° South 340 391 27,200 1,860 Climbing Chicago Center
11:48AM 40.5633 -92.1508 196° South 329 379 29,300 1,740 Climbing Chicago Center
11:49AM 40.4789 -92.1831 196° South 318 366 30,800 1,260 Climbing Chicago Center
11:50AM 40.3747 -92.2236 197° South 322 371 32,100 1,020 Climbing Kansas City Center
11:51AM 40.2847 -92.2586 197° South 332 382 33,100 960 Climbing Kansas City Center
11:52AM 40.1928 -92.2944 197° South 340 391 34,100 960 Climbing Kansas City Center
11:53AM 40.1003 -92.3294 196° South 344 396 35,200 900 Climbing Kansas City Center
11:54AM 40.0083 -92.3647 196° South 343 395 36,000 360 Climbing Kansas City Center
11:55AM 39.9114 -92.4017 196° South 357 411 36,000  Level Kansas City Center
11:56AM 39.7861 -92.4494 196° South 387 445 36,000  Level Kansas City Center
11:57AM 39.6753 -92.4908 196° South 408 470 36,000  Level Kansas City Center
11:58AM 39.5631 -92.5339 196° South 420 483 36,000  Level Kansas City Center
11:59AM 39.4511 -92.5744 196° South 420 483 36,000  Level Kansas City Center
12:00PM 39.3394 -92.6161 196° South 419 482 36,000  Level Kansas City Center
12:01PM 39.2117 -92.6636 196° South 418 481 36,000  Level Kansas City Center
12:02PM 39.1003 -92.7053 196° South 416 479 36,000  Level Kansas City Center
12:03PM 38.9872 -92.7467 196° South 419 482 36,000  Level Kansas City Center
12:04PM 38.8764 -92.7889 197° South 417 480 36,000  Level Kansas City Center
12:05PM 38.7636 -92.8289 195° South 418 481 36,000  Level Kansas City Center
12:06PM 38.6292 -92.8789 196° South 419 482 36,000  Level Kansas City Center
12:07PM 38.5175 -92.9175 195° South 417 480 36,000  Level Kansas City Center
12:09PM 38.4056 -92.9589 196° South 418 481 36,000  Level Kansas City Center
12:10PM 38.2919 -93.0000 196° South 421 484 36,000  Level Kansas City Center
12:11PM 38.1781 -93.0417 196° South 424 488 36,000  Level Kansas City Center
12:12PM 38.0636 -93.0831 196° South 428 493 36,000  Level Kansas City Center
12:13PM 37.9300 -93.1306 196° South 420 483 36,000  Level Kansas City Center
12:14PM 37.8167 -93.1717 196° South 423 487 36,000  Level Kansas City Center
12:15PM 37.7025 -93.2119 196° South 425 489 36,000  Level Kansas City Center
12:16PM 37.5878 -93.2533 196° South 428 493 36,000  Level Kansas City Center
12:17PM 37.4739 -93.2931 195° South 425 489 36,000  Level Kansas City Center
12:18PM 37.3606 -93.3339 196° South 424 488 36,000  Level Kansas City Center
12:19PM 37.2364 -93.4183 208° Southwest 426 490 36,000  Level Kansas City Center
12:20PM 37.1364 -93.4933 211° Southwest 418 481 36,000  Level Kansas City Center
12:21PM 37.0369 -93.5678 211° Southwest 416 479 36,000  Level Kansas City Center
12:22PM 36.9331 -93.6411 209° Southwest 423 487 36,000  Level Kansas City Center
12:23PM 36.8319 -93.7097 209° Southwest 429 494 36,000  Level Kansas City Center
12:24PM 36.7139 -93.7944 210° Southwest 426 490 36,000  Level Kansas City Center
12:25PM 36.6117 -93.8667 210° Southwest 424 488 36,000  Level Kansas City Center
12:26PM 36.5078 -93.9397 209° Southwest 424 488 36,000  Level Kansas City Center
12:27PM 36.3989 -93.9992 204° Southwest 423 487 36,000  Level Kansas City Center
12:28PM 36.2844 -94.0553 202° Southwest 429 494 36,000  Level Kansas City Center
12:29PM 36.1519 -94.1200 202° Southwest 431 496 36,000  Level Memphis Center
12:30PM 36.0333 -94.1814 203° Southwest 431 496 36,000  Level Memphis Center
12:31PM 35.9253 -94.2353 202° Southwest 431 496 36,000  Level Memphis Center
12:32PM 35.8131 -94.2889 201° Southwest 431 496 36,000  Level Memphis Center
12:33PM 35.7050 -94.3425 202° Southwest 431 496 36,000  Level Memphis Center
12:34PM 35.5947 -94.3986 202° Southwest 426 490 36,000  Level Memphis Center
12:35PM 35.4847 -94.4519 202° Southwest 421 484 36,000  Level Memphis Center
12:36PM 35.3744 -94.5050 201° Southwest 421 484 36,000  Level Memphis Center
12:37PM 35.2686 -94.5533 200° South 416 479 36,000  Level Memphis Center
12:39PM 35.0508 -94.6669 203° Southwest 443 510 36,000  Level Fort Worth Center
12:40PM 34.9544 -94.7461 214° Southwest 432 497 36,000  Level Fort Worth Center
12:41PM 34.8669 -94.8425 222° Southwest 424 488 36,000  Level Fort Worth Center
12:42PM 34.7811 -94.9333 221° Southwest 419 482 36,000 -360 Level Fort Worth Center
12:43PM 34.6953 -95.0244 221° Southwest 419 482 35,300 -1,380 Descending Fort Worth Center
12:44PM 34.6072 -95.1175 221° Southwest 419 482 33,300 -2,040 Descending Fort Worth Center
12:46PM 34.5233 -95.2081 222° Southwest 419 482 30,900 -2,820 Descending Fort Worth Center
12:47PM 34.4208 -95.3164 221° Southwest 419 482 27,100 -3,300 Descending Fort Worth Center
12:48PM 34.3389 -95.4014 221° Southwest 413 475 24,400 -1,560 Descending Fort Worth Center
12:49PM 34.2589 -95.4861 221° Southwest 400 460 24,000 -240 Descending Fort Worth Center
12:50PM 34.1661 -95.5786 220° Southwest 393 452 24,000  Level Fort Worth Center
12:51PM 34.0983 -95.6528 222° Southwest 399 459 24,000  Level Fort Worth Center
12:52PM 34.0039 -95.7500 220° Southwest 404 465 24,000 -60 Level Fort Worth Center
12:53PM 33.9153 -95.8417 221° Southwest 409 471 23,900 -780 Descending Fort Worth Center
12:54PM 33.8389 -95.9256 222° Southwest 420 483 22,500 -2,160 Descending Fort Worth Center
12:55PM 33.7503 -96.0169 221° Southwest 402 463 19,600 -3,000 Descending Fort Worth Center
12:56PM 33.6617 -96.1083 221° Southwest 391 450 16,500 -3,000 Descending Fort Worth Center
12:57PM 33.5933 -96.1792 221° Southwest 379 436 13,700 -2,700 Descending Fort Worth Center
12:58PM 33.5150 -96.2650 222° Southwest 361 415 11,100 -1,380 Descending Fort Worth Center
12:59PM 33.4550 -96.3353 224° Southwest 344 396 11,000 -60 Descending Fort Worth Center
01:00PM 33.3931 -96.4108 226° Southwest 308 354 11,000 -600 Level Fort Worth Center
01:01PM 33.3644 -96.4833 245° Southwest 274 315 9,800 -1,380 Descending Fort Worth Center
01:02PM 33.3294 -96.5706 244° Southwest 268 308 8,300 -1,380 Descending Fort Worth Center
01:03PM 33.2967 -96.6506 244° Southwest 268 308 7,100 -1,140 Descending Fort Worth Center
01:04PM 33.2678 -96.7203 244° Southwest 263 303 6,100 -1,020 Descending Fort Worth Center
01:05PM 33.2242 -96.7950 235° Southwest 258 297 5,100 -600 Descending Fort Worth Center
01:06PM 33.1828 -96.8475 227° Southwest 253 291 5,000 -600 Descending Fort Worth Center
01:07PM 33.1289 -96.9122 225° Southwest 253 291 4,000 -960 Descending Fort Worth Center
01:08PM 33.0894 -96.9647 228° Southwest 248 285 3,100 -600 Descending Fort Worth Center
01:08PM 33.0500 -97.0000 217° Southwest 187 215 3,000 -180 Descending Dallas / Fort Worth TRACON